createdAt,value
2023-03-17T00:00:43.530Z,1365
2023-03-17T00:06:01.469Z,1364
2023-03-17T00:11:19.726Z,1377
2023-03-17T00:16:38.002Z,1379
2023-03-17T00:21:56.374Z,1383
2023-03-17T00:27:14.927Z,1381
2023-03-17T00:32:32.915Z,1408
2023-03-17T00:37:51.315Z,1426
2023-03-17T00:43:10.050Z,1463
2023-03-17T00:48:28.286Z,1501
2023-03-17T00:53:31.138Z,1521
2023-03-17T00:58:49.910Z,1528
2023-03-17T01:04:08.191Z,1550
2023-03-17T01:09:26.675Z,1564
2023-03-17T01:14:44.602Z,1579
2023-03-17T01:20:03.400Z,1585
2023-03-17T01:25:22.554Z,1589
2023-03-17T01:30:41.301Z,1594
2023-03-17T01:36:00.197Z,1587
2023-03-17T01:41:18.486Z,1597
2023-03-17T01:46:36.963Z,1609
2023-03-17T01:51:54.924Z,1605
2023-03-17T01:57:13.796Z,1611
2023-03-17T02:02:32.001Z,1617
2023-03-17T02:07:50.501Z,1617
2023-03-17T02:13:08.984Z,1625
2023-03-17T02:18:27.199Z,1624
2023-03-17T02:23:46.060Z,1630
2023-03-17T02:29:04.526Z,1637
2023-03-17T02:34:22.730Z,1642
2023-03-17T02:39:41.228Z,1645
2023-03-17T02:44:59.156Z,1653
2023-03-17T02:50:17.636Z,1648
2023-03-17T02:55:35.935Z,1658
2023-03-17T03:00:53.862Z,1656
2023-03-17T03:06:12.435Z,1648
2023-03-17T03:11:31.256Z,1651
2023-03-17T03:16:49.744Z,1663
2023-03-17T03:22:08.254Z,1671
2023-03-17T03:27:26.212Z,1673
2023-03-17T03:32:44.823Z,1682
2023-03-17T03:38:03.076Z,1679
2023-03-17T03:43:23.592Z,1672
2023-03-17T03:48:42.718Z,1673
2023-03-17T03:54:01.222Z,1674
2023-03-17T03:59:04.081Z,1673
2023-03-17T04:04:22.643Z,1687
2023-03-17T04:09:41.065Z,1696
2023-03-17T04:14:59.876Z,1695
2023-03-17T04:20:18.276Z,1696
2023-03-17T04:25:36.789Z,1699
2023-03-17T04:30:55.293Z,1718
2023-03-17T04:36:13.523Z,1717
2023-03-17T04:41:32.007Z,1728
2023-03-17T04:46:50.289Z,1681
2023-03-17T04:52:08.234Z,1663
2023-03-17T04:57:26.440Z,1645
2023-03-17T05:02:44.958Z,1629
2023-03-17T05:08:03.160Z,1604
2023-03-17T05:13:06.026Z,1590
2023-03-17T05:18:24.280Z,1565
2023-03-17T05:23:42.492Z,1547
2023-03-17T05:29:00.419Z,1533
2023-03-17T05:34:18.362Z,1517
2023-03-17T05:39:36.572Z,1506
2023-03-17T05:44:55.326Z,1486
2023-03-17T05:50:13.295Z,1477
2023-03-17T05:55:31.796Z,1466
2023-03-17T06:00:50.043Z,1458
2023-03-17T06:06:08.260Z,1450
2023-03-17T06:11:26.474Z,1449
2023-03-17T06:16:44.964Z,1467
2023-03-17T06:22:03.217Z,1430
2023-03-17T06:27:21.423Z,1406
2023-03-17T06:32:39.916Z,1376
2023-03-17T06:37:58.624Z,1362
2023-03-17T06:43:16.813Z,1346
2023-03-17T06:48:35.033Z,1333
2023-03-17T06:53:53.511Z,1313
2023-03-17T06:59:11.729Z,1308
2023-03-17T07:04:30.276Z,1290
2023-03-17T07:09:48.724Z,1280
2023-03-17T07:15:06.653Z,1277
2023-03-17T07:20:25.406Z,1268
2023-03-17T07:25:43.650Z,1261
2023-03-17T07:31:02.141Z,1251
2023-03-17T07:36:20.494Z,1245
2023-03-17T07:41:39.004Z,1240
2023-03-17T07:46:57.767Z,1233
2023-03-17T07:52:16.306Z,1225
2023-03-17T07:57:34.566Z,1221
2023-03-17T08:03:03.321Z,1215
2023-03-17T08:08:29.372Z,1208
2023-03-17T08:13:47.700Z,1205
2023-03-17T08:19:05.886Z,1200
2023-03-17T08:24:24.086Z,1210
2023-03-17T08:29:45.856Z,1235
2023-03-17T08:35:04.623Z,1251
2023-03-17T08:40:22.849Z,1275
2023-03-17T08:45:41.374Z,1281
2023-03-17T08:50:59.800Z,1276
2023-03-17T08:56:02.668Z,1266
2023-03-17T09:01:21.253Z,1250
2023-03-17T09:06:46.442Z,1239
2023-03-17T09:12:21.974Z,1233
2023-03-17T09:17:39.975Z,1222
2023-03-17T09:22:58.174Z,1210
2023-03-17T09:28:16.930Z,1201
2023-03-17T09:33:35.789Z,1194
2023-03-17T09:38:54.003Z,1185
2023-03-17T09:44:13.150Z,1182
2023-03-17T09:49:31.354Z,1171
2023-03-17T09:54:49.269Z,1169
2023-03-17T10:00:07.777Z,1161
2023-03-17T10:05:30.185Z,1158
2023-03-17T10:10:50.046Z,1147
2023-03-17T10:16:08.818Z,1147
2023-03-17T10:21:27.351Z,1153
2023-03-17T10:26:45.277Z,1156
2023-03-17T10:32:03.846Z,1149
2023-03-17T10:37:22.479Z,1150
2023-03-17T10:42:40.703Z,1151
2023-03-17T10:47:59.197Z,1153
2023-03-17T10:53:18.000Z,1145
2023-03-17T10:58:36.095Z,1138
2023-03-17T11:03:54.625Z,1138
2023-03-17T11:09:12.776Z,1137
2023-03-17T11:14:31.789Z,1131
2023-03-17T11:19:50.267Z,1127
2023-03-17T11:25:08.814Z,1125
2023-03-17T11:30:27.424Z,1118
2023-03-17T11:35:45.638Z,1117
2023-03-17T11:41:04.699Z,1107
2023-03-17T11:46:22.786Z,1106
2023-03-17T11:51:40.966Z,1104
2023-03-17T11:56:59.195Z,1102
2023-03-17T12:02:17.773Z,1104
2023-03-17T12:07:36.659Z,1099
2023-03-17T12:12:54.878Z,1095
2023-03-17T12:18:12.812Z,1094
2023-03-17T12:23:15.719Z,1084
2023-03-17T12:28:34.514Z,1089
2023-03-17T12:33:52.793Z,1087
2023-03-17T12:39:11.485Z,1089
2023-03-17T12:44:30.280Z,1091
2023-03-17T12:49:49.913Z,1153
2023-03-17T12:55:08.523Z,932
2023-03-17T13:00:27.009Z,939
2023-03-17T13:05:45.541Z,952
2023-03-17T13:11:04.101Z,969
2023-03-17T13:16:26.658Z,990
2023-03-17T13:21:45.058Z,1001
2023-03-17T13:27:03.625Z,862
2023-03-17T13:32:21.886Z,968
2023-03-17T13:37:40.656Z,1032
2023-03-17T13:42:59.205Z,1066
2023-03-17T13:48:17.982Z,1168
2023-03-17T13:53:36.467Z,1165
2023-03-17T13:58:55.979Z,1164
2023-03-17T14:04:14.512Z,1167
2023-03-17T14:09:33.153Z,1175
2023-03-17T14:14:51.632Z,1203
2023-03-17T14:20:10.148Z,1208
2023-03-17T14:25:28.732Z,1210
2023-03-17T14:30:47.005Z,1217
2023-03-17T14:36:05.813Z,1228
2023-03-17T14:41:24.392Z,1235
2023-03-17T14:46:43.154Z,1270
2023-03-17T14:51:46.118Z,1189
2023-03-17T14:57:04.582Z,1143
2023-03-17T15:02:22.554Z,1150
2023-03-17T15:07:41.251Z,1160
2023-03-17T15:12:59.275Z,1168
2023-03-17T15:18:18.086Z,1174
2023-03-17T15:23:20.944Z,1182
2023-03-17T15:28:38.868Z,1193
2023-03-17T15:33:56.896Z,1209
2023-03-17T15:39:15.405Z,1229
2023-03-17T15:44:33.743Z,1269
2023-03-17T15:49:51.960Z,1313
2023-03-17T15:55:10.437Z,1344
2023-03-17T16:00:28.625Z,1354
2023-03-17T16:05:48.545Z,1343
2023-03-17T16:11:08.203Z,1347
2023-03-17T16:16:26.400Z,1354
2023-03-17T16:21:45.110Z,1348
2023-03-17T16:27:03.619Z,1337
2023-03-17T16:32:21.976Z,1334
2023-03-17T16:37:40.728Z,1336
2023-03-17T16:42:59.228Z,1331
2023-03-17T16:48:17.813Z,1328
2023-03-17T16:53:36.588Z,1321
2023-03-17T16:58:57.712Z,1321
2023-03-17T17:04:16.342Z,1316
2023-03-17T17:09:34.817Z,1311
2023-03-17T17:14:53.603Z,1298
2023-03-17T17:20:12.424Z,1290
2023-03-17T17:25:31.458Z,1279
2023-03-17T17:30:50.562Z,1268
2023-03-17T17:36:08.823Z,1259
2023-03-17T17:41:27.408Z,1252
2023-03-17T17:46:48.186Z,1245
2023-03-17T17:52:06.931Z,1237
2023-03-17T17:57:25.135Z,1214
2023-03-17T18:02:43.939Z,1216
2023-03-17T18:08:02.266Z,1204
2023-03-17T18:13:20.866Z,1204
2023-03-17T18:18:39.099Z,1205
2023-03-17T18:23:57.593Z,1209
2023-03-17T18:29:15.909Z,1206
2023-03-17T18:34:34.444Z,1202
2023-03-17T18:40:11.773Z,1196
2023-03-17T18:45:37.220Z,1204
2023-03-17T18:50:55.765Z,1199
2023-03-17T18:56:13.672Z,1205
2023-03-17T19:01:32.215Z,1196
2023-03-17T19:06:50.259Z,1201
2023-03-17T19:12:08.468Z,1203
2023-03-17T19:17:11.110Z,1199
2023-03-17T19:22:29.611Z,1200
2023-03-17T19:27:48.132Z,1194
2023-03-17T19:33:06.374Z,1196
2023-03-17T19:38:24.823Z,1189
2023-03-17T19:43:49.848Z,1187
2023-03-17T19:49:08.585Z,1184
2023-03-17T19:54:27.527Z,1187
2023-03-17T19:59:46.048Z,1191
2023-03-17T20:05:04.831Z,1189
2023-03-17T20:10:23.427Z,1185
2023-03-17T20:15:26.080Z,1174
2023-03-17T20:20:44.315Z,1164
2023-03-17T20:26:02.816Z,1158
2023-03-17T20:31:21.095Z,1160
2023-03-17T20:36:39.688Z,1164
2023-03-17T20:41:58.570Z,1166
2023-03-17T20:47:16.746Z,1167
2023-03-17T20:52:35.556Z,1175
2023-03-17T20:57:53.753Z,1176
2023-03-17T21:03:12.563Z,1189
2023-03-17T21:08:31.165Z,1194
2023-03-17T21:13:49.690Z,1221
2023-03-17T21:19:09.598Z,1219
2023-03-17T21:24:12.507Z,1223
2023-03-17T21:29:31.289Z,1232
2023-03-17T21:34:52.889Z,1245
2023-03-17T21:40:11.475Z,1261
2023-03-17T21:45:30.016Z,1288
2023-03-17T21:50:48.418Z,1347
2023-03-17T21:56:06.667Z,1348
2023-03-17T22:01:24.988Z,1336
2023-03-17T22:06:44.013Z,1333
2023-03-17T22:12:02.538Z,1350
2023-03-17T22:17:21.038Z,1354
2023-03-17T22:22:39.280Z,1401
2023-03-17T22:27:57.499Z,1449
2023-03-17T22:33:16.001Z,1481
2023-03-17T22:38:34.564Z,1481
2023-03-17T22:43:53.005Z,1496
2023-03-17T22:49:11.209Z,1502
2023-03-17T22:54:30.000Z,1515
2023-03-17T22:59:48.189Z,1518
2023-03-17T23:05:06.720Z,1517
2023-03-17T23:10:24.715Z,1519
2023-03-17T23:15:43.186Z,1527
2023-03-17T23:21:01.724Z,1527
2023-03-17T23:26:19.965Z,1527
2023-03-17T23:31:38.250Z,1532
2023-03-17T23:36:56.743Z,1538
2023-03-17T23:42:15.502Z,1540
2023-03-17T23:47:33.709Z,1539
2023-03-17T23:52:52.226Z,1535
2023-03-17T23:58:10.688Z,1537
